Time;durP1;ratioP1;P1;durP2;ratioP2;P2;SDS_P1;SDS_P2;PMS_P1;PMS_P2;Temp;Humidity;BMP_temperature;BMP_pressure;BME280_temperature;BME280_humidity;BME280_pressure;Samples;Min_cycle;Max_cycle;Signal;HPM_P1;HPM_P2
2023/08/25 00:01:16;;;;;;;6.47;5.67;;;18.70;1.00;;;;;;5119241;28;20459;-62
2023/08/25 00:03:43;;;;;;;5.50;5.00;;;18.80;1.00;;;;;;5119589;28;20509;-62
2023/08/25 00:06:12;;;;;;;6.13;5.20;;;18.80;1.00;;;;;;5119463;28;20455;-62
2023/08/25 00:08:40;;;;;;;6.20;5.27;;;18.80;1.00;;;;;;5116736;28;20471;-62
2023/08/25 00:11:07;;;;;;;6.07;5.47;;;18.80;1.00;;;;;;5098722;28;20997;-62
2023/08/25 00:13:35;;;;;;;6.57;5.07;;;18.70;1.00;;;;;;5099587;28;20456;-62
2023/08/25 00:16:04;;;;;;;9.03;5.77;;;18.70;1.00;;;;;;5098909;28;20473;-62
2023/08/25 00:18:31;;;;;;;7.43;5.17;;;18.70;1.00;;;;;;5099149;28;20457;-62
2023/08/25 00:20:58;;;;;;;7.50;5.80;;;18.60;1.00;;;;;;5099099;28;20554;-62
2023/08/25 00:23:27;;;;;;;5.90;5.30;;;18.70;1.00;;;;;;5099588;28;20535;-61
2023/08/25 00:25:54;;;;;;;7.10;6.30;;;18.70;1.00;;;;;;5098515;28;20912;-61
2023/08/25 00:28:21;;;;;;;8.17;7.00;;;18.80;1.00;;;;;;5098915;28;20877;-60
2023/08/25 00:30:49;;;;;;;9.50;6.70;;;18.80;24.30;;;;;;5099243;28;20724;-61
2023/08/25 00:33:17;;;;;;;12.53;6.27;;;18.80;49.20;;;;;;5098766;28;20462;-61
2023/08/25 00:35:44;;;;;;;6.80;5.80;;;18.80;63.90;;;;;;5107015;28;20938;-62
2023/08/25 00:38:11;;;;;;;6.40;5.77;;;18.80;1.00;;;;;;5118690;28;20460;-61
2023/08/25 00:40:40;;;;;;;7.60;6.40;;;18.80;1.00;;;;;;5118500;28;20464;-61
2023/08/25 00:43:07;;;;;;;6.57;5.97;;;18.80;1.00;;;;;;5118894;28;20554;-61
2023/08/25 00:45:39;;;;;;;6.70;5.97;;;18.90;1.00;;;;;;5118242;28;20546;-62
2023/08/25 00:48:07;;;;;;;7.03;5.80;;;18.80;1.00;;;;;;5118644;28;20467;-62
2023/08/25 00:50:35;;;;;;;10.10;5.90;;;18.80;1.00;;;;;;5118929;28;20455;-61
2023/08/25 00:53:02;;;;;;;9.53;6.60;;;18.70;1.00;;;;;;5119144;28;20456;-61
2023/08/25 00:55:30;;;;;;;8.47;5.90;;;18.70;1.00;;;;;;5118013;28;20463;-62
2023/08/25 00:57:59;;;;;;;10.20;6.13;;;18.70;1.00;;;;;;5117588;28;20784;-62
2023/08/25 01:00:27;;;;;;;7.67;5.80;;;18.70;1.00;;;;;;5118346;28;20542;-61
2023/08/25 01:02:55;;;;;;;7.47;5.97;;;18.60;1.00;;;;;;5117869;28;20463;-61
2023/08/25 01:05:22;;;;;;;6.00;5.37;;;18.70;1.00;;;;;;5118472;28;20488;-59
2023/08/25 01:07:49;;;;;;;6.73;6.13;;;18.60;1.00;;;;;;5117567;28;20542;-60
2023/08/25 01:10:17;;;;;;;7.80;5.57;;;18.70;1.00;;;;;;5118179;28;20451;-60
2023/08/25 01:13:00;;;;;;;7.03;6.30;;;18.70;1.00;;;;;;5117601;28;20502;-61
2023/08/25 01:15:33;;;;;;;6.67;5.97;;;18.70;1.00;;;;;;5117985;28;20459;-61
2023/08/25 01:18:07;;;;;;;7.67;6.20;;;18.70;1.00;;;;;;5117738;28;20455;-61
2023/08/25 01:20:37;;;;;;;11.70;6.50;;;18.70;1.00;;;;;;5103044;28;20529;-60
2023/08/25 01:23:18;;;;;;;6.43;5.83;;;18.70;1.00;;;;;;5118440;28;20455;-61
2023/08/25 01:25:49;;;;;;;7.33;6.60;;;18.70;1.00;;;;;;5118159;28;20554;-60
2023/08/25 01:28:21;;;;;;;8.80;6.63;;;18.70;1.00;;;;;;5117968;28;20451;-60
2023/08/25 01:30:50;;;;;;;8.27;6.07;;;18.70;1.00;;;;;;5117421;28;20531;-61
2023/08/25 01:33:19;;;;;;;9.60;7.87;;;18.70;1.00;;;;;;5118287;28;20554;-61
2023/08/25 01:35:56;;;;;;;6.27;5.67;;;18.70;1.00;;;;;;5117346;28;20612;-61
2023/08/25 01:38:30;;;;;;;7.23;5.60;;;18.60;1.00;;;;;;5117670;28;20455;-61
2023/08/25 01:41:06;;;;;;;7.90;5.93;;;18.60;1.00;;;;;;5117439;28;20455;-61
2023/08/25 01:43:39;;;;;;;7.80;6.03;;;18.60;1.00;;;;;;5117990;28;20512;-61
2023/08/25 01:46:10;;;;;;;13.13;6.53;;;18.60;1.00;;;;;;5116709;28;20463;-60
2023/08/25 01:48:39;;;;;;;8.73;6.40;;;18.60;1.00;;;;;;5117377;28;20466;-61
2023/08/25 01:51:08;;;;;;;6.70;6.00;;;18.60;1.00;;;;;;5117140;28;20509;-60
2023/08/25 01:53:36;;;;;;;8.90;5.90;;;18.60;1.00;;;;;;5117969;28;20455;-61
2023/08/25 01:56:06;;;;;;;8.20;6.37;;;18.60;1.00;;;;;;5117191;28;20463;-61
2023/08/25 01:58:35;;;;;;;7.20;6.53;;;18.60;1.00;;;;;;5115946;28;20462;-60
2023/08/25 02:01:03;;;;;;;7.20;6.20;;;18.50;1.00;;;;;;5117122;28;20463;-60
2023/08/25 02:03:31;;;;;;;7.40;6.60;;;18.50;1.00;;;;;;5117264;28;20451;-60
2023/08/25 02:05:59;;;;;;;7.90;6.30;;;18.50;1.00;;;;;;5117529;28;20451;-60
2023/08/25 02:08:27;;;;;;;7.40;6.50;;;18.40;1.00;;;;;;5116820;28;20474;-60
2023/08/25 02:10:55;;;;;;;8.40;6.00;;;18.40;93.00;;;;;;5116850;28;20452;-60
2023/08/25 02:13:25;;;;;;;8.33;6.57;;;18.50;78.90;;;;;;5117804;28;20462;-60
2023/08/25 02:15:54;;;;;;;9.27;5.67;;;18.50;25.30;;;;;;5117209;28;20463;-60
2023/08/25 02:18:22;;;;;;;10.27;6.70;;;18.40;25.80;;;;;;5117401;28;20727;-60
2023/08/25 02:20:50;;;;;;;9.03;5.30;;;18.30;92.90;;;;;;5116758;28;20497;-60
2023/08/25 02:23:19;;;;;;;7.90;6.40;;;18.30;99.90;;;;;;5117374;28;20459;-60
2023/08/25 02:25:47;;;;;;;8.63;6.90;;;18.40;99.90;;;;;;5096797;28;20499;-61
2023/08/25 02:28:16;;;;;;;6.20;5.43;;;18.40;99.90;;;;;;5097168;28;20918;-59
2023/08/25 02:30:45;;;;;;;7.93;5.70;;;18.40;99.90;;;;;;5096750;28;20460;-60
2023/08/25 02:33:13;;;;;;;9.33;6.10;;;18.40;99.90;;;;;;5109828;28;20514;-60
2023/08/25 02:35:40;;;;;;;8.33;5.90;;;18.50;99.90;;;;;;5116870;28;20574;-60
2023/08/25 02:38:10;;;;;;;7.13;5.93;;;18.40;99.90;;;;;;5116856;28;20558;-60
2023/08/25 02:40:38;;;;;;;6.70;6.10;;;18.40;1.00;;;;;;5117111;28;20525;-60
2023/08/25 02:43:06;;;;;;;6.63;5.80;;;18.40;1.00;;;;;;5117757;28;20728;-60
2023/08/25 02:45:34;;;;;;;6.80;6.00;;;18.40;1.00;;;;;;5116673;28;20782;-60
2023/08/25 02:48:03;;;;;;;7.60;6.10;;;18.30;1.00;;;;;;5116436;28;20470;-60
2023/08/25 02:50:30;;;;;;;8.80;6.17;;;18.30;1.00;;;;;;5116736;28;20455;-60
2023/08/25 02:52:58;;;;;;;8.00;5.93;;;18.30;1.00;;;;;;5117343;28;20465;-60
2023/08/25 02:55:25;;;;;;;7.10;5.60;;;18.30;1.00;;;;;;5116737;28;20496;-61
2023/08/25 02:57:52;;;;;;;8.53;5.90;;;18.30;1.00;;;;;;5116296;28;20474;-59
2023/08/25 03:00:23;;;;;;;10.37;6.40;;;18.30;1.00;;;;;;5119755;28;20570;-60
2023/08/25 03:02:50;;;;;;;5.90;5.30;;;18.30;1.00;;;;;;5120750;28;20549;-60
2023/08/25 03:05:21;;;;;;;7.90;5.93;;;18.20;1.00;;;;;;5120903;28;20490;-60
2023/08/25 03:07:51;;;;;;;8.37;5.13;;;18.20;1.00;;;;;;5120863;28;20911;-60
2023/08/25 03:10:18;;;;;;;8.47;5.47;;;18.20;1.00;;;;;;5119746;28;20517;-60
2023/08/25 03:12:46;;;;;;;9.50;6.27;;;18.30;1.00;;;;;;5120068;28;20466;-60
2023/08/25 03:15:13;;;;;;;6.83;6.10;;;18.30;1.00;;;;;;5120768;28;20829;-60
2023/08/25 03:17:41;;;;;;;9.03;6.20;;;18.20;1.00;;;;;;5120806;28;20451;-60
2023/08/25 03:20:09;;;;;;;7.83;6.27;;;18.20;1.00;;;;;;5120367;28;20451;-60
2023/08/25 03:22:38;;;;;;;6.63;5.07;;;18.20;1.00;;;;;;5119826;28;20466;-60
2023/08/25 03:25:06;;;;;;;6.47;5.70;;;18.20;1.00;;;;;;5120921;28;20510;-59
2023/08/25 03:27:34;;;;;;;6.87;6.03;;;18.20;1.00;;;;;;5119769;28;20514;-60
2023/08/25 03:30:01;;;;;;;9.83;5.10;;;18.20;1.00;;;;;;5120346;28;20774;-60
2023/08/25 03:32:29;;;;;;;6.83;6.23;;;18.20;2.70;;;;;;5120403;28;20460;-60
2023/08/25 03:34:56;;;;;;;7.93;6.10;;;18.10;1.00;;;;;;5120146;28;20712;-60
2023/08/25 03:37:23;;;;;;;9.67;5.33;;;18.00;9.30;;;;;;5108212;28;20555;-61
2023/08/25 03:39:52;;;;;;;8.73;6.20;;;18.10;67.10;;;;;;5099366;28;20528;-60
2023/08/25 03:42:19;;;;;;;6.33;5.23;;;18.10;19.30;;;;;;5098918;28;20456;-60
2023/08/25 03:44:47;;;;;;;5.80;5.20;;;18.10;52.20;;;;;;5099632;28;20779;-59
2023/08/25 03:47:14;;;;;;;5.80;5.00;;;18.10;35.30;;;;;;5099575;28;20459;-60
2023/08/25 03:49:42;;;;;;;12.50;5.83;;;18.20;1.00;;;;;;5099557;28;20467;-60
2023/08/25 03:52:09;;;;;;;7.07;6.37;;;18.10;99.90;;;;;;5107811;28;20487;-60
2023/08/25 03:54:36;;;;;;;7.37;5.60;;;18.20;1.00;;;;;;5119959;28;20487;-60
2023/08/25 03:57:07;;;;;;;6.20;5.43;;;18.10;1.00;;;;;;5119477;28;20465;-60
2023/08/25 03:59:34;;;;;;;8.70;5.80;;;18.10;99.90;;;;;;5119948;28;20459;-60
2023/08/25 04:02:03;;;;;;;10.10;5.40;;;18.10;1.00;;;;;;5117701;28;20485;-60
2023/08/25 04:04:31;;;;;;;9.63;6.50;;;18.10;1.00;;;;;;5106772;28;20822;-60
2023/08/25 04:06:58;;;;;;;5.83;5.23;;;18.10;1.00;;;;;;5106775;28;20465;-60
2023/08/25 04:09:26;;;;;;;7.50;5.93;;;18.10;1.00;;;;;;5099081;28;20877;-60
2023/08/25 04:11:55;;;;;;;8.93;5.30;;;18.10;1.00;;;;;;5098120;28;20460;-61
2023/08/25 04:14:24;;;;;;;6.93;5.60;;;18.10;1.00;;;;;;5098674;28;20825;-60
2023/08/25 04:16:51;;;;;;;7.47;5.73;;;18.10;1.00;;;;;;5099784;28;20486;-60
2023/08/25 04:19:21;;;;;;;7.80;5.13;;;17.90;1.00;;;;;;5099252;28;20554;-61
2023/08/25 04:21:48;;;;;;;7.63;5.10;;;17.80;1.00;;;;;;5098510;28;20510;-60
2023/08/25 04:24:15;;;;;;;8.90;5.40;;;17.80;34.30;;;;;;5098317;28;20487;-60
2023/08/25 04:26:43;;;;;;;10.07;6.07;;;17.80;99.90;;;;;;5098745;28;20857;-60
2023/08/25 04:29:10;;;;;;;8.93;6.40;;;17.90;99.90;;;;;;5098819;28;20862;-60
2023/08/25 04:31:39;;;;;;;8.53;6.70;;;17.80;99.90;;;;;;5098267;28;20464;-60
2023/08/25 04:34:06;;;;;;;8.33;6.60;;;17.90;99.90;;;;;;5097193;28;20453;-60
2023/08/25 04:36:36;;;;;;;6.97;5.83;;;18.00;99.90;;;;;;5114585;28;20820;-60
2023/08/25 04:39:03;;;;;;;6.77;5.60;;;18.00;99.90;;;;;;5118966;28;20459;-60
2023/08/25 04:41:30;;;;;;;6.00;5.33;;;18.10;99.90;;;;;;5118729;28;20452;-60
2023/08/25 04:43:58;;;;;;;12.10;5.97;;;18.20;99.90;;;;;;5117276;28;20463;-60
2023/08/25 04:46:28;;;;;;;7.80;6.27;;;18.20;52.30;;;;;;5118307;28;20492;-60
2023/08/25 04:48:57;;;;;;;6.83;5.43;;;18.20;17.40;;;;;;5118716;28;20455;-60
2023/08/25 04:51:24;;;;;;;7.10;6.40;;;18.20;1.00;;;;;;5118887;28;20542;-60
2023/08/25 04:53:51;;;;;;;7.50;6.30;;;18.30;1.00;;;;;;5117934;28;20463;-60
2023/08/25 04:56:18;;;;;;;7.80;5.73;;;18.30;1.00;;;;;;5116325;28;20452;-63
2023/08/25 04:58:45;;;;;;;8.97;6.47;;;18.30;1.00;;;;;;5116400;28;20459;-61
2023/08/25 05:01:13;;;;;;;6.70;6.10;;;18.30;1.00;;;;;;5116700;28;20734;-60
2023/08/25 05:03:42;;;;;;;7.67;6.27;;;18.30;1.00;;;;;;5117025;28;20459;-61
2023/08/25 05:06:10;;;;;;;9.53;6.33;;;18.30;1.00;;;;;;5116418;28;20811;-60
2023/08/25 05:08:39;;;;;;;8.83;6.03;;;18.30;1.00;;;;;;5115950;28;20460;-61
2023/08/25 05:11:07;;;;;;;6.47;5.73;;;18.30;1.00;;;;;;5117094;28;20558;-61
2023/08/25 05:13:34;;;;;;;7.67;6.17;;;18.40;1.00;;;;;;5118376;28;20513;-61
2023/08/25 05:16:01;;;;;;;10.70;5.60;;;18.40;99.90;;;;;;5117772;28;20458;-61
2023/08/25 05:18:28;;;;;;;8.50;6.20;;;18.30;1.00;;;;;;5116008;28;20463;-61
2023/08/25 05:20:59;;;;;;;7.43;6.70;;;18.40;1.00;;;;;;5116392;28;20796;-61
2023/08/25 05:23:28;;;;;;;7.13;6.10;;;18.40;99.90;;;;;;5116077;28;20502;-60
2023/08/25 05:25:56;;;;;;;7.90;5.60;;;18.50;99.90;;;;;;5116027;28;20826;-61
2023/08/25 05:28:24;;;;;;;6.93;5.97;;;18.50;99.90;;;;;;5115530;28;20851;-61
2023/08/25 05:30:51;;;;;;;7.23;5.90;;;18.50;99.90;;;;;;5115782;28;20467;-61
2023/08/25 05:33:18;;;;;;;5.93;5.43;;;18.60;99.90;;;;;;5117122;28;20508;-60
2023/08/25 05:35:45;;;;;;;6.30;5.70;;;18.70;99.90;;;;;;5117321;28;20946;-60
2023/08/25 05:38:13;;;;;;;6.07;5.57;;;18.70;46.60;;;;;;5117849;28;20451;-60
2023/08/25 05:40:42;;;;;;;8.37;5.50;;;18.70;99.90;;;;;;5116785;28;20772;-61
2023/08/25 05:43:09;;;;;;;11.50;5.97;;;18.70;68.40;;;;;;5107949;28;20481;-60
2023/08/25 05:45:37;;;;;;;6.93;6.23;;;18.70;1.00;;;;;;5117088;28;20495;-60
2023/08/25 05:48:05;;;;;;;8.50;6.63;;;18.80;1.00;;;;;;5116064;28;20757;-61
2023/08/25 05:50:32;;;;;;;10.27;6.57;;;18.90;1.00;;;;;;5116098;28;20538;-60
2023/08/25 05:52:59;;;;;;;7.10;6.23;;;18.90;99.90;;;;;;5114701;28;20908;-60
2023/08/25 05:55:27;;;;;;;8.40;6.60;;;18.90;99.90;;;;;;5115138;28;20466;-61
2023/08/25 05:57:55;;;;;;;10.93;7.77;;;19.00;99.90;;;;;;5114900;28;20555;-62
2023/08/25 06:00:23;;;;;;;7.73;6.37;;;19.10;1.00;;;;;;5116139;28;20502;-60
2023/08/25 06:02:50;;;;;;;7.93;6.67;;;19.10;1.00;;;;;;5116978;28;20453;-61
2023/08/25 06:05:17;;;;;;;6.80;5.90;;;19.20;1.00;;;;;;5117001;28;20523;-60
2023/08/25 06:07:44;;;;;;;7.33;6.47;;;19.40;1.00;;;;;;5116763;28;20463;-61
2023/08/25 06:10:12;;;;;;;8.27;6.50;;;19.50;1.00;;;;;;5115672;28;20546;-61
2023/08/25 06:12:39;;;;;;;7.37;6.23;;;19.60;1.00;;;;;;5115756;28;20898;-61
2023/08/25 06:15:10;;;;;;;8.50;6.00;;;19.70;99.90;;;;;;5115582;28;20460;-61
2023/08/25 06:17:37;;;;;;;6.70;6.07;;;19.80;99.90;;;;;;5116049;28;20470;-61
2023/08/25 06:20:06;;;;;;;7.20;5.80;;;19.90;55.90;;;;;;5115338;28;20495;-61
2023/08/25 06:22:33;;;;;;;9.90;5.97;;;20.00;1.00;;;;;;5115842;28;20553;-61
2023/08/25 06:25:01;;;;;;;9.83;5.60;;;20.20;1.00;;;;;;5116561;28;20455;-60
2023/08/25 06:27:28;;;;;;;5.70;5.20;;;20.40;99.90;;;;;;5116622;28;20903;-60
2023/08/25 06:29:55;;;;;;;10.20;5.67;;;20.50;99.90;;;;;;5117000;28;20470;-61
2023/08/25 06:32:24;;;;;;;6.17;5.33;;;20.60;99.90;;;;;;5116615;28;20465;-61
2023/08/25 06:34:53;;;;;;;5.93;5.30;;;20.70;99.90;;;;;;5119505;28;20466;-60
2023/08/25 06:37:20;;;;;;;5.70;5.00;;;20.80;99.90;;;;;;5121700;28;20940;-61
2023/08/25 06:39:47;;;;;;;5.37;4.83;;;20.80;1.00;;;;;;5119948;28;20486;-61
2023/08/25 06:42:16;;;;;;;5.80;4.97;;;20.90;99.90;;;;;;5119869;28;20776;-60
2023/08/25 06:44:44;;;;;;;7.80;5.80;;;20.90;1.00;;;;;;5121050;28;20460;-60
2023/08/25 06:47:13;;;;;;;5.63;5.10;;;20.60;1.00;;;;;;5120621;28;20925;-61
2023/08/25 06:49:42;;;;;;;7.00;4.70;;;20.70;99.90;;;;;;5120069;28;20507;-61
2023/08/25 06:52:11;;;;;;;12.20;5.93;;;20.80;1.00;;;;;;5118231;28;20505;-60
2023/08/25 06:54:38;;;;;;;7.13;5.67;;;20.80;1.00;;;;;;5119303;28;20899;-61
2023/08/25 06:57:07;;;;;;;7.03;5.20;;;20.70;99.90;;;;;;5121226;28;20505;-61
2023/08/25 06:59:34;;;;;;;8.07;5.30;;;20.70;99.90;;;;;;5120732;28;20459;-60
2023/08/25 07:02:02;;;;;;;6.20;5.67;;;20.60;99.90;;;;;;5119921;28;20455;-60
2023/08/25 07:04:30;;;;;;;6.67;5.80;;;20.50;99.90;;;;;;5118522;28;20546;-61
2023/08/25 07:07:00;;;;;;;5.90;5.30;;;20.50;99.90;;;;;;5119141;28;20548;-61
2023/08/25 07:09:28;;;;;;;6.83;6.20;;;20.50;1.00;;;;;;5119255;28;20797;-61
2023/08/25 07:11:55;;;;;;;6.57;5.80;;;20.40;1.00;;;;;;5113216;28;21376;-61
2023/08/25 07:14:23;;;;;;;7.27;5.90;;;20.30;1.00;;;;;;5119343;28;20888;-60
2023/08/25 07:16:50;;;;;;;6.80;5.27;;;20.30;1.00;;;;;;5118941;28;20447;-61
2023/08/25 07:19:17;;;;;;;6.60;6.00;;;20.30;99.90;;;;;;5118652;28;20840;-62
2023/08/25 07:21:45;;;;;;;8.40;5.87;;;20.30;1.00;;;;;;5118411;28;20491;-60
2023/08/25 07:24:14;;;;;;;6.53;5.93;;;20.40;99.90;;;;;;5118694;28;20465;-60
2023/08/25 07:26:41;;;;;;;6.70;6.00;;;20.60;86.50;;;;;;5117609;28;20989;-60
2023/08/25 07:29:09;;;;;;;6.73;5.30;;;20.60;1.00;;;;;;5118154;28;20499;-61
2023/08/25 07:31:36;;;;;;;6.23;5.57;;;20.90;1.00;;;;;;5118635;28;20459;-60
2023/08/25 07:34:04;;;;;;;8.57;5.63;;;21.20;1.00;;;;;;5118380;28;20458;-60
2023/08/25 07:36:31;;;;;;;6.97;6.27;;;21.30;1.00;;;;;;5117994;28;20487;-61
2023/08/25 07:38:58;;;;;;;8.07;6.33;;;21.20;1.00;;;;;;5118027;28;20491;-61
2023/08/25 07:41:27;;;;;;;6.73;6.13;;;21.00;99.90;;;;;;5118358;28;20558;-61
2023/08/25 07:43:57;;;;;;;6.70;5.93;;;20.80;99.90;;;;;;5118812;28;20508;-61
2023/08/25 07:46:25;;;;;;;6.90;6.30;;;20.70;1.00;;;;;;5117647;28;20483;-61
2023/08/25 07:48:52;;;;;;;6.93;6.20;;;20.50;99.90;;;;;;5118462;28;20479;-61
2023/08/25 07:51:19;;;;;;;6.57;5.97;;;20.40;1.00;;;;;;5118042;28;20520;-61
2023/08/25 07:53:47;;;;;;;6.80;6.20;;;20.30;99.90;;;;;;5117744;28;20459;-61
2023/08/25 07:56:14;;;;;;;7.67;6.93;;;20.10;99.90;;;;;;5117677;28;20455;-61
2023/08/25 07:58:43;;;;;;;7.17;6.53;;;20.10;1.00;;;;;;5118852;28;20539;-61
2023/08/25 08:01:11;;;;;;;7.90;6.90;;;20.20;99.90;;;;;;5118399;28;20554;-61
2023/08/25 08:03:38;;;;;;;7.50;6.73;;;20.20;99.90;;;;;;5116602;28;20807;-61
2023/08/25 08:06:06;;;;;;;7.97;7.00;;;20.20;99.90;;;;;;5117203;28;20492;-60
2023/08/25 08:08:33;;;;;;;8.50;7.70;;;20.10;99.90;;;;;;5116361;28;20459;-61
2023/08/25 08:11:01;;;;;;;11.40;7.63;;;20.00;99.90;;;;;;5117240;28;20460;-61
2023/08/25 08:13:28;;;;;;;8.03;7.27;;;20.00;1.00;;;;;;5117478;28;20479;-61
2023/08/25 08:15:57;;;;;;;11.53;8.43;;;20.00;1.00;;;;;;5117785;28;20458;-61
2023/08/25 08:18:25;;;;;;;9.77;8.87;;;20.00;99.90;;;;;;5117901;28;20845;-61
2023/08/25 08:20:54;;;;;;;9.93;8.93;;;20.00;99.90;;;;;;5118082;28;20455;-61
2023/08/25 08:23:22;;;;;;;16.67;11.63;;;20.00;99.90;;;;;;5117067;28;20467;-62
2023/08/25 08:25:50;;;;;;;10.53;9.43;;;20.00;1.00;;;;;;5117610;28;20483;-60
2023/08/25 08:28:18;;;;;;;11.30;10.20;;;19.90;1.00;;;;;;5117981;28;20459;-60
2023/08/25 08:30:45;;;;;;;12.50;9.80;;;19.90;79.30;;;;;;5117466;28;20463;-62
2023/08/25 08:33:14;;;;;;;11.40;9.93;;;19.80;99.90;;;;;;5117968;28;20554;-59
2023/08/25 08:35:42;;;;;;;15.87;9.70;;;19.80;1.00;;;;;;5118320;28;20954;-62
2023/08/25 08:38:10;;;;;;;12.87;10.93;;;19.80;1.00;;;;;;5118219;28;20467;-61
2023/08/25 08:40:38;;;;;;;12.07;10.63;;;19.80;1.00;;;;;;5118685;28;20468;-64
2023/08/25 08:43:10;;;;;;;11.77;10.57;;;19.80;17.90;;;;;;5118664;28;20505;-64
2023/08/25 08:45:40;;;;;;;11.00;9.57;;;19.60;99.90;;;;;;5116945;28;20770;-63
2023/08/25 08:48:08;;;;;;;12.00;10.83;;;19.60;99.90;;;;;;5116939;28;20455;-61
2023/08/25 08:50:37;;;;;;;12.00;10.63;;;19.70;99.90;;;;;;5118786;28;20869;-62
2023/08/25 08:53:06;;;;;;;12.50;11.23;;;19.70;99.90;;;;;;5118648;28;20479;-62
2023/08/25 08:55:34;;;;;;;12.73;10.50;;;19.70;99.90;;;;;;5117754;28;20513;-60
2023/08/25 08:58:03;;;;;;;10.03;9.00;;;19.70;99.90;;;;;;5117238;28;20550;-61
2023/08/25 09:00:32;;;;;;;10.47;9.40;;;19.60;99.90;;;;;;5117494;28;20881;-62
2023/08/25 09:03:01;;;;;;;10.60;9.60;;;19.60;99.90;;;;;;5116498;28;20459;-62
2023/08/25 09:05:30;;;;;;;10.80;9.80;;;19.70;99.90;;;;;;5115925;28;20472;-61
2023/08/25 09:08:04;;;;;;;10.07;8.43;;;19.70;99.90;;;;;;5116537;28;20544;-60
2023/08/25 09:10:32;;;;;;;9.10;8.20;;;19.80;99.90;;;;;;5116438;28;20768;-61
2023/08/25 09:13:00;;;;;;;7.80;7.00;;;19.70;99.90;;;;;;5116855;28;20459;-60
2023/08/25 09:15:29;;;;;;;8.00;7.20;;;19.80;99.90;;;;;;5118062;28;20462;-64
2023/08/25 09:18:02;;;;;;;7.90;7.10;;;19.80;99.90;;;;;;5118189;28;20455;-60
2023/08/25 09:20:29;;;;;;;8.10;7.30;;;19.80;99.90;;;;;;5117634;28;20877;-61
2023/08/25 09:22:58;;;;;;;9.37;7.50;;;19.70;99.90;;;;;;5116906;28;20468;-60
2023/08/25 09:25:26;;;;;;;9.70;6.87;;;19.70;99.90;;;;;;5118203;28;20546;-60
2023/08/25 09:28:01;;;;;;;6.73;6.10;;;19.60;99.90;;;;;;5117749;28;20798;-59
2023/08/25 09:30:35;;;;;;;7.37;6.63;;;19.60;99.90;;;;;;5117372;28;20511;-62
2023/08/25 09:33:04;;;;;;;7.20;5.80;;;19.60;99.90;;;;;;5117967;28;20459;-62
2023/08/25 09:35:32;;;;;;;7.03;5.70;;;19.70;99.90;;;;;;5116202;28;20511;-62
2023/08/25 09:38:01;;;;;;;7.33;5.20;;;19.90;99.90;;;;;;5097334;28;20484;-61
2023/08/25 09:40:30;;;;;;;6.23;5.50;;;20.00;99.90;;;;;;5097562;28;20893;-61
2023/08/25 09:43:00;;;;;;;6.67;5.13;;;20.20;99.90;;;;;;5084297;28;20491;-61
2023/08/25 09:45:29;;;;;;;5.50;5.00;;;20.30;48.20;;;;;;5097502;28;20783;-60
2023/08/25 09:48:07;;;;;;;5.37;4.87;;;20.50;1.00;;;;;;5097299;28;20492;-61
2023/08/25 09:50:39;;;;;;;7.23;5.03;;;20.60;1.00;;;;;;5097300;28;20467;-60
2023/08/25 09:53:09;;;;;;;6.70;5.67;;;20.70;1.00;;;;;;5099579;28;20467;-60
2023/08/25 09:55:38;;;;;;;6.40;5.30;;;20.90;1.00;;;;;;5104830;28;20895;-60
2023/08/25 09:58:07;;;;;;;7.53;4.90;;;21.00;1.00;;;;;;5097741;28;20899;-60
2023/08/25 10:00:35;;;;;;;8.37;5.10;;;21.20;1.00;;;;;;5095784;28;20460;-60
2023/08/25 10:03:04;;;;;;;6.47;4.93;;;21.30;99.90;;;;;;5098187;28;20467;-61
2023/08/25 10:05:33;;;;;;;6.17;5.57;;;21.10;58.00;;;;;;5097604;28;20896;-61
2023/08/25 10:08:01;;;;;;;6.20;4.77;;;21.10;99.90;;;;;;5115832;28;20787;-61
2023/08/25 10:10:34;;;;;;;6.00;4.70;;;20.80;1.00;;;;;;5124743;28;20459;-60
2023/08/25 10:13:04;;;;;;;6.70;4.83;;;20.60;99.90;;;;;;5124823;28;20768;-60
2023/08/25 10:15:33;;;;;;;6.80;5.77;;;20.50;99.90;;;;;;5124804;28;20798;-59
2023/08/25 10:18:02;;;;;;;8.87;4.47;;;20.30;99.90;;;;;;5112203;28;20868;-61
2023/08/25 10:20:31;;;;;;;7.87;4.90;;;20.20;99.90;;;;;;5103641;28;20467;-63
2023/08/25 10:23:00;;;;;;;7.03;5.23;;;20.00;99.90;;;;;;5103646;28;20460;-63
2023/08/25 10:25:31;;;;;;;6.83;4.97;;;19.90;99.90;;;;;;5104074;28;20954;-63
2023/08/25 10:28:01;;;;;;;5.30;4.57;;;19.90;1.00;;;;;;5108910;28;20522;-63
2023/08/25 10:30:29;;;;;;;7.50;5.10;;;19.80;1.00;;;;;;5124248;28;20533;-63
2023/08/25 10:33:01;;;;;;;6.80;5.70;;;19.80;21.80;;;;;;5122823;28;20466;-62
2023/08/25 10:35:45;;;;;;;6.57;5.60;;;19.70;1.00;;;;;;5123948;28;20491;-63
2023/08/25 10:38:39;;;;;;;6.73;5.50;;;19.60;1.00;;;;;;5120321;28;20793;-62
2023/08/25 10:41:23;;;;;;;8.00;7.20;;;19.60;23.40;;;;;;5103620;28;20503;-62
2023/08/25 10:43:55;;;;;;;10.30;6.30;;;19.60;99.90;;;;;;5103483;28;20463;-62
2023/08/25 10:46:24;;;;;;;7.83;6.30;;;19.50;99.90;;;;;;5102855;28;20505;-63
2023/08/25 10:49:06;;;;;;;7.63;6.00;;;19.50;99.90;;;;;;5106927;28;20539;-62
2023/08/25 10:51:34;;;;;;;8.40;5.87;;;19.70;99.90;;;;;;5124067;28;20463;-62
2023/08/25 10:54:02;;;;;;;10.17;8.10;;;19.90;99.90;;;;;;5123890;28;20461;-67
2023/08/25 10:56:32;;;;;;;22.40;8.30;;;19.90;99.90;;;;;;5123789;28;20512;-67
2023/08/25 10:59:04;;;;;;;7.40;6.57;;;19.90;99.90;;;;;;5121481;28;20467;-66
2023/08/25 11:01:58;;;;;;;7.53;6.23;;;19.70;99.90;;;;;;5103890;28;20731;-62
2023/08/25 11:04:29;;;;;;;14.10;7.27;;;19.80;99.90;;;;;;5118804;28;20491;-62
2023/08/25 11:06:58;;;;;;;9.30;6.90;;;19.80;99.90;;;;;;5123248;28;20955;-66
2023/08/25 11:09:35;;;;;;;7.83;5.57;;;19.70;99.90;;;;;;5122523;28;20756;-65
2023/08/25 11:12:07;;;;;;;8.03;6.53;;;19.60;99.90;;;;;;5087651;28;20751;-62
2023/08/25 11:14:36;;;;;;;10.87;5.40;;;19.60;99.90;;;;;;5103020;28;20482;-61
2023/08/25 11:17:07;;;;;;;7.30;5.27;;;19.50;99.90;;;;;;5103417;28;20455;-61
2023/08/25 11:19:37;;;;;;;5.47;3.77;;;19.50;99.90;;;;;;5100442;28;20467;-59
2023/08/25 11:22:06;;;;;;;6.30;4.90;;;19.30;99.90;;;;;;5099110;28;20467;-62
2023/08/25 11:24:35;;;;;;;5.20;4.00;;;19.30;99.90;;;;;;5098929;28;20483;-61
2023/08/25 11:27:10;;;;;;;4.90;3.47;;;19.30;99.90;;;;;;5098587;28;20976;-61
2023/08/25 11:29:39;;;;;;;4.90;3.40;;;19.30;99.90;;;;;;5098737;28;20460;-60
2023/08/25 11:32:07;;;;;;;3.87;3.23;;;19.50;99.90;;;;;;5097210;28;20464;-59
2023/08/25 11:34:35;;;;;;;6.13;3.17;;;19.80;99.90;;;;;;5099092;28;20456;-61
2023/08/25 11:37:05;;;;;;;4.60;3.10;;;20.50;99.90;;;;;;5097710;28;20456;-63
2023/08/25 11:39:34;;;;;;;5.63;3.03;;;21.00;99.90;;;;;;5097801;28;20876;-62
2023/08/25 11:42:03;;;;;;;3.63;3.10;;;21.10;1.00;;;;;;5097132;28;20931;-61
2023/08/25 11:44:32;;;;;;;4.47;2.87;;;21.10;1.00;;;;;;5098693;28;20468;-63
2023/08/25 11:47:03;;;;;;;5.87;3.47;;;21.00;99.90;;;;;;5099233;28;20594;-61
2023/08/25 11:49:31;;;;;;;4.30;3.40;;;20.90;1.00;;;;;;5098253;28;20535;-61
2023/08/25 11:52:01;;;;;;;6.60;3.60;;;20.80;1.00;;;;;;5098528;28;20461;-61
2023/08/25 11:54:30;;;;;;;4.93;3.47;;;20.80;1.00;;;;;;5097673;28;20522;-61
2023/08/25 11:56:59;;;;;;;6.63;3.60;;;20.70;99.90;;;;;;5099306;28;20461;-61
2023/08/25 11:59:29;;;;;;;5.40;3.53;;;20.70;40.30;;;;;;5098675;28;20495;-61
2023/08/25 12:02:02;;;;;;;4.87;3.70;;;20.70;99.90;;;;;;5099279;28;20881;-61
2023/08/25 12:04:33;;;;;;;5.53;3.60;;;20.90;99.90;;;;;;5097643;28;20933;-61
2023/08/25 12:07:02;;;;;;;3.87;3.00;;;21.20;99.90;;;;;;5078989;28;20489;-62
2023/08/25 12:09:30;;;;;;;4.10;2.73;;;21.20;1.00;;;;;;5078646;28;20882;-62
2023/08/25 12:12:08;;;;;;;3.40;3.10;;;21.10;1.00;;;;;;5078542;28;20494;-62
2023/08/25 12:14:41;;;;;;;3.63;2.83;;;21.10;99.90;;;;;;5078003;28;20464;-62
2023/08/25 12:17:25;;;;;;;5.20;3.90;;;21.60;99.90;;;;;;5094555;28;20461;-63
2023/08/25 12:19:54;;;;;;;4.40;3.47;;;22.00;1.00;;;;;;5097975;28;20456;-62
2023/08/25 12:22:25;;;;;;;4.30;3.00;;;22.60;99.90;;;;;;5098802;28;20501;-63
2023/08/25 12:24:54;;;;;;;6.43;3.40;;;23.20;1.00;;;;;;5098843;28;20494;-62
2023/08/25 12:27:23;;;;;;;3.40;3.07;;;23.80;1.00;;;;;;5088459;28;20763;-63
2023/08/25 12:29:52;;;;;;;3.87;3.40;;;24.30;99.90;;;;;;5078051;28;20511;-62
2023/08/25 12:32:22;;;;;;;5.73;3.33;;;24.90;99.90;;;;;;5076441;28;20526;-62
2023/08/25 12:34:50;;;;;;;7.23;3.60;;;25.30;95.60;;;;;;5095114;28;20537;-62
2023/08/25 12:37:19;;;;;;;5.77;3.50;;;25.80;1.00;;;;;;5118690;28;20545;-62
2023/08/25 12:39:46;;;;;;;3.00;2.57;;;25.80;1.00;;;;;;5118365;28;20469;-62
2023/08/25 12:42:13;;;;;;;3.27;2.97;;;25.80;99.90;;;;;;5118322;28;20452;-61
2023/08/25 12:44:40;;;;;;;4.07;3.10;;;25.90;99.90;;;;;;5118677;28;20490;-61
2023/08/25 12:47:08;;;;;;;7.60;2.80;;;26.10;99.90;;;;;;5118249;28;20491;-61
2023/08/25 12:49:37;;;;;;;4.50;3.10;;;26.10;11.20;;;;;;5118933;28;20455;-60
2023/08/25 12:52:05;;;;;;;4.13;3.00;;;25.90;1.00;;;;;;5118541;28;20485;-60
2023/08/25 12:54:33;;;;;;;3.43;3.13;;;25.80;95.40;;;;;;5115286;28;20467;-60
2023/08/25 12:57:00;;;;;;;3.60;2.53;;;25.90;1.00;;;;;;5111942;28;20957;-60
2023/08/25 12:59:28;;;;;;;2.57;2.30;;;26.10;1.00;;;;;;5117563;28;20516;-60